sensor_id;sensor_type;location;lat;lon;timestamp;pressure;altitude;pressure_sealevel;temperature;humidity
53506;BME280;39388;50.936;6.848;2023-01-23T00:02:12;102710.09;;;3.35;84.16
53506;BME280;39388;50.936;6.848;2023-01-23T00:04:42;102714.31;;;3.34;84.54
53506;BME280;39388;50.936;6.848;2023-01-23T00:07:13;102705.53;;;3.29;84.49
53506;BME280;39388;50.936;6.848;2023-01-23T00:09:43;102704.06;;;3.33;84.63
53506;BME280;39388;50.936;6.848;2023-01-23T00:12:13;102709.41;;;3.37;84.47
53506;BME280;39388;50.936;6.848;2023-01-23T00:14:44;102706.59;;;3.33;84.29
53506;BME280;39388;50.936;6.848;2023-01-23T00:17:14;102717.06;;;3.37;84.38
53506;BME280;39388;50.936;6.848;2023-01-23T00:19:45;102708.44;;;3.35;84.16
53506;BME280;39388;50.936;6.848;2023-01-23T00:22:15;102716.34;;;3.40;84.28
53506;BME280;39388;50.936;6.848;2023-01-23T00:24:46;102706.75;;;3.36;84.62
53506;BME280;39388;50.936;6.848;2023-01-23T00:27:16;102709.56;;;3.41;84.11
53506;BME280;39388;50.936;6.848;2023-01-23T00:29:47;102707.72;;;3.38;83.32
53506;BME280;39388;50.936;6.848;2023-01-23T00:32:21;102716.25;;;3.38;84.07
53506;BME280;39388;50.936;6.848;2023-01-23T00:34:51;102707.53;;;3.35;83.94
53506;BME280;39388;50.936;6.848;2023-01-23T00:37:22;102714.50;;;3.37;84.15
53506;BME280;39388;50.936;6.848;2023-01-23T00:39:52;102706.59;;;3.33;83.77
53506;BME280;39388;50.936;6.848;2023-01-23T00:42:22;102713.53;;;3.35;83.13
53506;BME280;39388;50.936;6.848;2023-01-23T00:44:53;102714.50;;;3.37;83.60
53506;BME280;39388;50.936;6.848;2023-01-23T00:47:23;102716.78;;;3.33;83.66
53506;BME280;39388;50.936;6.848;2023-01-23T00:49:54;102710.53;;;3.28;83.84
53506;BME280;39388;50.936;6.848;2023-01-23T00:52:26;102721.91;;;3.33;83.88
53506;BME280;39388;50.936;6.848;2023-01-23T00:54:57;102726.88;;;3.31;83.90
53506;BME280;39388;50.936;6.848;2023-01-23T00:57:27;102734.78;;;3.36;84.06
53506;BME280;39388;50.936;6.848;2023-01-23T00:59:58;102732.16;;;3.34;83.77
53506;BME280;39388;50.936;6.848;2023-01-23T01:02:28;102716.88;;;3.34;83.96
53506;BME280;39388;50.936;6.848;2023-01-23T01:04:58;102716.63;;;3.30;83.66
53506;BME280;39388;50.936;6.848;2023-01-23T01:07:29;102712.91;;;3.25;83.70
53506;BME280;39388;50.936;6.848;2023-01-23T01:09:59;102721.72;;;3.30;83.72
53506;BME280;39388;50.936;6.848;2023-01-23T01:12:29;102721.34;;;3.23;83.93
53506;BME280;39388;50.936;6.848;2023-01-23T01:15:00;102723.81;;;3.22;83.62
53506;BME280;39388;50.936;6.848;2023-01-23T01:17:31;102737.53;;;3.24;83.67
53506;BME280;39388;50.936;6.848;2023-01-23T01:20:03;102739.38;;;3.27;83.77
53506;BME280;39388;50.936;6.848;2023-01-23T01:22:34;102736.03;;;3.28;84.00
53506;BME280;39388;50.936;6.848;2023-01-23T01:25:05;102736.91;;;3.28;83.63
53506;BME280;39388;50.936;6.848;2023-01-23T01:27:35;102729.78;;;3.22;83.85
53506;BME280;39388;50.936;6.848;2023-01-23T01:30:06;102741.13;;;3.28;83.92
53506;BME280;39388;50.936;6.848;2023-01-23T01:32:38;102737.53;;;3.24;83.88
53506;BME280;39388;50.936;6.848;2023-01-23T01:35:10;102736.03;;;3.28;84.41
53506;BME280;39388;50.936;6.848;2023-01-23T01:37:41;102736.03;;;3.28;83.97
53506;BME280;39388;50.936;6.848;2023-01-23T01:40:15;102735.94;;;3.26;84.28
53506;BME280;39388;50.936;6.848;2023-01-23T01:42:49;102749.94;;;3.33;83.96
53506;BME280;39388;50.936;6.848;2023-01-23T01:48:40;102745.19;;;3.39;83.72
53506;BME280;39388;50.936;6.848;2023-01-23T01:51:17;102750.28;;;3.39;83.57
53506;BME280;39388;50.936;6.848;2023-01-23T01:56:36;102753.72;;;3.40;83.81
53506;BME280;39388;50.936;6.848;2023-01-23T01:59:08;102749.41;;;3.38;83.74
53506;BME280;39388;50.936;6.848;2023-01-23T02:01:41;102754.78;;;3.43;83.67
53506;BME280;39388;50.936;6.848;2023-01-23T02:04:15;102758.91;;;3.41;83.69
53506;BME280;39388;50.936;6.848;2023-01-23T02:06:46;102761.44;;;3.41;83.71
53506;BME280;39388;50.936;6.848;2023-01-23T02:09:21;102751.06;;;3.38;83.57
53506;BME280;39388;50.936;6.848;2023-01-23T02:11:53;102750.03;;;3.34;83.70
53506;BME280;39388;50.936;6.848;2023-01-23T02:14:24;102758.72;;;3.38;83.65
53506;BME280;39388;50.936;6.848;2023-01-23T02:16:54;102767.41;;;3.42;83.43
53506;BME280;39388;50.936;6.848;2023-01-23T02:22:15;102764.88;;;3.42;84.08
53506;BME280;39388;50.936;6.848;2023-01-23T02:24:59;102750.34;;;3.41;83.86
53506;BME280;39388;50.936;6.848;2023-01-23T02:27:32;102755.56;;;3.42;83.11
53506;BME280;39388;50.936;6.848;2023-01-23T02:30:03;102744.91;;;3.34;83.53
53506;BME280;39388;50.936;6.848;2023-01-23T02:32:36;102758.13;;;3.42;83.26
53506;BME280;39388;50.936;6.848;2023-01-23T02:35:14;102756.63;;;3.46;82.83
53506;BME280;39388;50.936;6.848;2023-01-23T02:37:46;102758.97;;;3.43;82.88
53506;BME280;39388;50.936;6.848;2023-01-23T02:40:18;102756.97;;;3.37;83.06
53506;BME280;39388;50.936;6.848;2023-01-23T02:42:50;102728.03;;;3.21;83.19
53506;BME280;39388;50.936;6.848;2023-01-23T02:45:21;102742.19;;;3.31;82.97
53506;BME280;39388;50.936;6.848;2023-01-23T02:47:52;102758.97;;;3.43;83.05
53506;BME280;39388;50.936;6.848;2023-01-23T02:50:22;102768.50;;;3.45;82.74
53506;BME280;39388;50.936;6.848;2023-01-23T02:52:53;102758.66;;;3.36;82.34
53506;BME280;39388;50.936;6.848;2023-01-23T02:55:24;102763.47;;;3.47;82.70
53506;BME280;39388;50.936;6.848;2023-01-23T02:57:59;102771.13;;;3.47;82.34
53506;BME280;39388;50.936;6.848;2023-01-23T03:00:48;102768.56;;;3.47;82.28
53506;BME280;39388;50.936;6.848;2023-01-23T03:03:18;102767.72;;;3.46;82.12
53506;BME280;39388;50.936;6.848;2023-01-23T03:05:49;102771.91;;;3.46;82.17
53506;BME280;39388;50.936;6.848;2023-01-23T03:08:19;102766.63;;;3.43;82.09
53506;BME280;39388;50.936;6.848;2023-01-23T03:10:50;102758.81;;;3.40;82.13
53506;BME280;39388;50.936;6.848;2023-01-23T03:13:20;102753.09;;;3.29;82.13
53506;BME280;39388;50.936;6.848;2023-01-23T03:15:50;102759.06;;;3.29;82.25
53506;BME280;39388;50.936;6.848;2023-01-23T03:18:24;102764.09;;;3.28;82.47
53506;BME280;39388;50.936;6.848;2023-01-23T03:21:03;102761.28;;;3.23;82.42
53506;BME280;39388;50.936;6.848;2023-01-23T03:23:34;102755.38;;;3.24;82.59
53506;BME280;39388;50.936;6.848;2023-01-23T03:26:05;102737.69;;;3.12;82.58
53506;BME280;39388;50.936;6.848;2023-01-23T03:28:35;102743.16;;;3.18;82.49
53506;BME280;39388;50.936;6.848;2023-01-23T03:31:24;102735.94;;;3.11;82.61
53506;BME280;39388;50.936;6.848;2023-01-23T03:33:55;102739.78;;;3.19;83.16
53506;BME280;39388;50.936;6.848;2023-01-23T03:36:25;102755.28;;;3.22;82.76
53506;BME280;39388;50.936;6.848;2023-01-23T03:38:56;102747.44;;;3.19;83.04
53506;BME280;39388;50.936;6.848;2023-01-23T03:41:44;102757.22;;;3.12;82.86
53506;BME280;39388;50.936;6.848;2023-01-23T03:44:18;102747.25;;;3.01;83.38
53506;BME280;39388;50.936;6.848;2023-01-23T03:46:50;102766.16;;;3.05;83.29
53506;BME280;39388;50.936;6.848;2023-01-23T03:49:21;102759.47;;;2.92;83.51
53506;BME280;39388;50.936;6.848;2023-01-23T03:51:51;102774.84;;;2.93;83.64
53506;BME280;39388;50.936;6.848;2023-01-23T03:54:21;102765.88;;;2.85;83.79
53506;BME280;39388;50.936;6.848;2023-01-23T03:56:52;102779.66;;;2.89;83.66
53506;BME280;39388;50.936;6.848;2023-01-23T03:59:23;102781.34;;;2.88;84.04
53506;BME280;39388;50.936;6.848;2023-01-23T04:01:53;102781.50;;;2.91;84.13
53506;BME280;39388;50.936;6.848;2023-01-23T04:04:24;102780.91;;;2.96;84.00
53506;BME280;39388;50.936;6.848;2023-01-23T04:06:55;102781.97;;;2.99;83.69
53506;BME280;39388;50.936;6.848;2023-01-23T04:09:25;102776.25;;;3.03;83.76
53506;BME280;39388;50.936;6.848;2023-01-23T04:11:58;102779.00;;;3.06;83.40
53506;BME280;39388;50.936;6.848;2023-01-23T04:14:28;102774.69;;;3.05;83.22
53506;BME280;39388;50.936;6.848;2023-01-23T04:17:07;102766.06;;;3.03;82.96
53506;BME280;39388;50.936;6.848;2023-01-23T04:19:37;102774.69;;;3.05;83.15
53506;BME280;39388;50.936;6.848;2023-01-23T04:22:08;102768.03;;;3.07;82.95
53506;BME280;39388;50.936;6.848;2023-01-23T04:24:39;102780.84;;;3.09;83.16
53506;BME280;39388;50.936;6.848;2023-01-23T04:27:09;102783.50;;;3.11;83.07
53506;BME280;39388;50.936;6.848;2023-01-23T04:29:40;102781.09;;;3.14;82.57
53506;BME280;39388;50.936;6.848;2023-01-23T04:32:11;102777.63;;;3.12;82.88
53506;BME280;39388;50.936;6.848;2023-01-23T04:34:41;102779.34;;;3.13;82.70
53506;BME280;39388;50.936;6.848;2023-01-23T04:37:11;102771.53;;;3.10;82.55
53506;BME280;39388;50.936;6.848;2023-01-23T04:39:42;102775.84;;;3.11;82.77
53506;BME280;39388;50.936;6.848;2023-01-23T04:42:13;102772.53;;;3.12;82.60
53506;BME280;39388;50.936;6.848;2023-01-23T04:44:43;102768.03;;;3.07;82.96
53506;BME280;39388;50.936;6.848;2023-01-23T04:47:13;102773.31;;;3.11;83.00
53506;BME280;39388;50.936;6.848;2023-01-23T04:49:44;102772.66;;;3.15;82.59
53506;BME280;39388;50.936;6.848;2023-01-23T04:52:14;102760.91;;;3.02;82.65
53506;BME280;39388;50.936;6.848;2023-01-23T04:54:44;102769.84;;;3.10;83.20
53506;BME280;39388;50.936;6.848;2023-01-23T04:57:15;102769.84;;;3.10;82.94
53506;BME280;39388;50.936;6.848;2023-01-23T04:59:45;102764.75;;;3.10;82.91
53506;BME280;39388;50.936;6.848;2023-01-23T05:02:16;102767.31;;;3.10;83.14
53506;BME280;39388;50.936;6.848;2023-01-23T05:04:46;102769.59;;;3.05;82.95
53506;BME280;39388;50.936;6.848;2023-01-23T05:07:17;102758.06;;;2.97;82.84
53506;BME280;39388;50.936;6.848;2023-01-23T05:09:47;102774.88;;;3.08;83.35
53506;BME280;39388;50.936;6.848;2023-01-23T05:12:18;102776.47;;;3.06;83.12
53506;BME280;39388;50.936;6.848;2023-01-23T05:14:48;102773.19;;;3.09;83.12
53506;BME280;39388;50.936;6.848;2023-01-23T05:17:18;102776.25;;;3.03;82.65
53506;BME280;39388;50.936;6.848;2023-01-23T05:19:49;102789.19;;;3.06;83.29
53506;BME280;39388;50.936;6.848;2023-01-23T05:22:19;102768.44;;;3.00;83.34
53506;BME280;39388;50.936;6.848;2023-01-23T05:24:49;102776.97;;;3.01;82.97
53506;BME280;39388;50.936;6.848;2023-01-23T05:27:20;102775.34;;;2.88;83.48
53506;BME280;39388;50.936;6.848;2023-01-23T05:29:50;102770.38;;;2.76;83.15
53506;BME280;39388;50.936;6.848;2023-01-23T05:32:20;102772.50;;;2.68;83.58
53506;BME280;39388;50.936;6.848;2023-01-23T05:34:51;102784.34;;;2.68;83.69
53506;BME280;39388;50.936;6.848;2023-01-23T05:37:21;102778.97;;;2.63;83.87
53506;BME280;39388;50.936;6.848;2023-01-23T05:39:54;102796.28;;;2.69;83.79
53506;BME280;39388;50.936;6.848;2023-01-23T05:42:25;102798.44;;;2.62;83.26
53506;BME280;39388;50.936;6.848;2023-01-23T05:44:55;102806.78;;;2.60;83.90
53506;BME280;39388;50.936;6.848;2023-01-23T05:47:26;102813.38;;;2.56;83.99
53506;BME280;39388;50.936;6.848;2023-01-23T05:49:57;102803.25;;;2.58;83.88
53506;BME280;39388;50.936;6.848;2023-01-23T05:52:27;102807.97;;;2.65;84.07
53506;BME280;39388;50.936;6.848;2023-01-23T05:54:57;102804.00;;;2.70;83.53
53506;BME280;39388;50.936;6.848;2023-01-23T05:57:28;102810.28;;;2.75;83.69
53506;BME280;39388;50.936;6.848;2023-01-23T05:59:58;102808.59;;;2.76;83.17
53506;BME280;39388;50.936;6.848;2023-01-23T06:02:28;102806.34;;;2.81;83.55
53506;BME280;39388;50.936;6.848;2023-01-23T06:04:59;102816.72;;;2.84;83.42
53506;BME280;39388;50.936;6.848;2023-01-23T06:07:29;102816.03;;;2.86;83.17
53506;BME280;39388;50.936;6.848;2023-01-23T06:09:59;102814.47;;;2.88;83.58
53506;BME280;39388;50.936;6.848;2023-01-23T06:12:30;102822.13;;;2.88;83.23
53506;BME280;39388;50.936;6.848;2023-01-23T06:15:00;102823.47;;;2.83;83.33
53506;BME280;39388;50.936;6.848;2023-01-23T06:17:31;102817.13;;;2.76;83.12
53506;BME280;39388;50.936;6.848;2023-01-23T06:20:02;102815.28;;;2.74;83.29
53506;BME280;39388;50.936;6.848;2023-01-23T06:22:33;102816.66;;;2.69;82.97
53506;BME280;39388;50.936;6.848;2023-01-23T06:25:03;102822.53;;;2.68;82.56
53506;BME280;39388;50.936;6.848;2023-01-23T06:27:34;102829.63;;;2.58;83.03
53506;BME280;39388;50.936;6.848;2023-01-23T06:30:05;102831.09;;;2.55;83.08
53506;BME280;39388;50.936;6.848;2023-01-23T06:32:35;102830.81;;;2.50;83.09
53506;BME280;39388;50.936;6.848;2023-01-23T06:35:06;102833.25;;;2.49;83.34
53506;BME280;39388;50.936;6.848;2023-01-23T06:37:36;102833.25;;;2.49;83.44
53506;BME280;39388;50.936;6.848;2023-01-23T06:40:07;102830.81;;;2.50;83.07
53506;BME280;39388;50.936;6.848;2023-01-23T06:42:42;102839.13;;;2.47;83.11
53506;BME280;39388;50.936;6.848;2023-01-23T06:45:12;102832.97;;;2.44;83.00
53506;BME280;39388;50.936;6.848;2023-01-23T06:47:43;102845.91;;;2.47;83.12
53506;BME280;39388;50.936;6.848;2023-01-23T06:50:13;102853.44;;;2.45;83.49
53506;BME280;39388;50.936;6.848;2023-01-23T06:52:43;102863.91;;;2.50;83.10
53506;BME280;39388;50.936;6.848;2023-01-23T06:55:14;102869.91;;;2.51;82.86
53506;BME280;39388;50.936;6.848;2023-01-23T06:57:44;102874.38;;;2.55;83.10
53506;BME280;39388;50.936;6.848;2023-01-23T07:00:15;102862.06;;;2.47;83.31
53506;BME280;39388;50.936;6.848;2023-01-23T07:02:45;102888.28;;;2.60;83.39
53506;BME280;39388;50.936;6.848;2023-01-23T07:05:15;102894.75;;;2.68;83.63
53506;BME280;39388;50.936;6.848;2023-01-23T07:07:46;102893.38;;;2.73;83.96
53506;BME280;39388;50.936;6.848;2023-01-23T07:10:16;102886.72;;;2.75;83.39
53506;BME280;39388;50.936;6.848;2023-01-23T07:12:47;102882.59;;;2.77;83.60
53506;BME280;39388;50.936;6.848;2023-01-23T07:15:17;102906.28;;;2.90;83.20
53506;BME280;39388;50.936;6.848;2023-01-23T07:17:47;102905.56;;;2.92;83.31
53506;BME280;39388;50.936;6.848;2023-01-23T07:20:18;102903.16;;;2.94;83.36
53506;BME280;39388;50.936;6.848;2023-01-23T07:22:48;102912.72;;;2.98;83.25
53506;BME280;39388;50.936;6.848;2023-01-23T07:25:20;102911.94;;;2.99;83.15
53506;BME280;39388;50.936;6.848;2023-01-23T07:27:51;102906.94;;;3.01;83.28
53506;BME280;39388;50.936;6.848;2023-01-23T07:30:21;102908.09;;;3.06;83.12
53506;BME280;39388;50.936;6.848;2023-01-23T07:32:52;102920.84;;;3.06;83.31
53506;BME280;39388;50.936;6.848;2023-01-23T07:35:23;102923.78;;;3.12;82.78
53506;BME280;39388;50.936;6.848;2023-01-23T07:37:53;102924.47;;;3.10;82.87
53506;BME280;39388;50.936;6.848;2023-01-23T07:40:24;102921.22;;;3.12;82.49
53506;BME280;39388;50.936;6.848;2023-01-23T07:42:55;102919.06;;;3.18;82.98
53506;BME280;39388;50.936;6.848;2023-01-23T07:45:26;102920.81;;;3.19;82.91
53506;BME280;39388;50.936;6.848;2023-01-23T07:47:56;102919.22;;;3.21;82.66
53506;BME280;39388;50.936;6.848;2023-01-23T07:50:26;102920.22;;;3.23;82.96
53506;BME280;39388;50.936;6.848;2023-01-23T07:52:57;102918.63;;;3.26;82.80
53506;BME280;39388;50.936;6.848;2023-01-23T07:55:27;102917.06;;;3.28;82.46
53506;BME280;39388;50.936;6.848;2023-01-23T07:57:58;102910.28;;;3.28;82.81
53506;BME280;39388;50.936;6.848;2023-01-23T08:00:28;102913.22;;;3.34;82.71
53506;BME280;39388;50.936;6.848;2023-01-23T08:02:58;102916.84;;;3.38;82.33
53506;BME280;39388;50.936;6.848;2023-01-23T08:05:29;102920.44;;;3.42;82.25
53506;BME280;39388;50.936;6.848;2023-01-23T08:07:59;102919.97;;;3.47;82.15
53506;BME280;39388;50.936;6.848;2023-01-23T08:10:30;102925.22;;;3.50;81.92
53506;BME280;39388;50.936;6.848;2023-01-23T08:13:00;102922.59;;;3.49;82.10
53506;BME280;39388;50.936;6.848;2023-01-23T08:15:30;102927.09;;;3.53;81.66
53506;BME280;39388;50.936;6.848;2023-01-23T08:18:01;102925.47;;;3.55;81.65
53506;BME280;39388;50.936;6.848;2023-01-23T08:20:31;102937.56;;;3.58;81.46
53506;BME280;39388;50.936;6.848;2023-01-23T08:23:01;102931.69;;;3.59;81.38
53506;BME280;39388;50.936;6.848;2023-01-23T08:25:32;102935.09;;;3.59;81.03
53506;BME280;39388;50.936;6.848;2023-01-23T08:28:02;102910.44;;;3.45;80.92
53506;BME280;39388;50.936;6.848;2023-01-23T08:30:33;102929.00;;;3.57;80.95
53506;BME280;39388;50.936;6.848;2023-01-23T08:33:03;102930.00;;;3.59;81.14
53506;BME280;39388;50.936;6.848;2023-01-23T08:35:33;102931.81;;;3.62;81.10
53506;BME280;39388;50.936;6.848;2023-01-23T08:38:04;102921.53;;;3.60;81.42
53506;BME280;39388;50.936;6.848;2023-01-23T08:40:37;102931.41;;;3.69;81.52
53506;BME280;39388;50.936;6.848;2023-01-23T08:43:07;102936.00;;;3.75;81.50
53506;BME280;39388;50.936;6.848;2023-01-23T08:45:40;102921.41;;;3.72;80.82
53506;BME280;39388;50.936;6.848;2023-01-23T08:48:10;102927.63;;;3.77;80.95
53506;BME280;39388;50.936;6.848;2023-01-23T08:50:41;102931.28;;;3.81;80.72
53506;BME280;39388;50.936;6.848;2023-01-23T08:53:12;102929.84;;;3.86;80.89
53506;BME280;39388;50.936;6.848;2023-01-23T08:55:42;102925.38;;;3.82;80.89
53506;BME280;39388;50.936;6.848;2023-01-23T08:58:13;102926.69;;;3.90;81.20
53506;BME280;39388;50.936;6.848;2023-01-23T09:00:43;102927.75;;;3.94;81.50
53506;BME280;39388;50.936;6.848;2023-01-23T09:03:14;102934.81;;;3.98;80.93
53506;BME280;39388;50.936;6.848;2023-01-23T09:05:44;102934.09;;;4.00;80.55
53506;BME280;39388;50.936;6.848;2023-01-23T09:08:14;102935.84;;;4.02;80.84
53506;BME280;39388;50.936;6.848;2023-01-23T09:10:45;102934.09;;;4.00;80.40
53506;BME280;39388;50.936;6.848;2023-01-23T09:13:16;102931.78;;;4.05;80.95
53506;BME280;39388;50.936;6.848;2023-01-23T09:15:48;102927.31;;;4.01;80.71
53506;BME280;39388;50.936;6.848;2023-01-23T09:18:19;102950.41;;;4.18;80.81
53506;BME280;39388;50.936;6.848;2023-01-23T09:20:52;102955.78;;;4.22;80.45
53506;BME280;39388;50.936;6.848;2023-01-23T09:23:23;102953.28;;;4.24;80.59
53506;BME280;39388;50.936;6.848;2023-01-23T09:25:53;102946.22;;;4.20;80.39
53506;BME280;39388;50.936;6.848;2023-01-23T09:28:24;102946.41;;;4.23;80.54
53506;BME280;39388;50.936;6.848;2023-01-23T09:30:54;102946.59;;;4.26;80.36
53506;BME280;39388;50.936;6.848;2023-01-23T09:33:24;102959.56;;;4.29;80.36
53506;BME280;39388;50.936;6.848;2023-01-23T09:35:56;102956.88;;;4.27;80.42
53506;BME280;39388;50.936;6.848;2023-01-23T09:38:27;102965.72;;;4.33;80.07
53506;BME280;39388;50.936;6.848;2023-01-23T09:40:59;102958.94;;;4.33;80.27
53506;BME280;39388;50.936;6.848;2023-01-23T09:46:11;102958.41;;;4.39;80.09
53506;BME280;39388;50.936;6.848;2023-01-23T09:48:45;102963.41;;;4.37;79.71
53506;BME280;39388;50.936;6.848;2023-01-23T09:51:44;102975.56;;;4.41;79.79
53506;BME280;39388;50.936;6.848;2023-01-23T09:57:20;102968.53;;;4.52;79.45
53506;BME280;39388;50.936;6.848;2023-01-23T10:00:03;102975.47;;;4.55;79.90
53506;BME280;39388;50.936;6.848;2023-01-23T10:02:34;102975.22;;;4.50;79.47
53506;BME280;39388;50.936;6.848;2023-01-23T10:05:05;102975.47;;;4.55;79.88
53506;BME280;39388;50.936;6.848;2023-01-23T10:13:24;102967.53;;;4.65;78.90
53506;BME280;39388;50.936;6.848;2023-01-23T10:21:58;102981.03;;;4.63;78.99
53506;BME280;39388;50.936;6.848;2023-01-23T10:27:14;102981.44;;;4.55;79.47
53506;BME280;39388;50.936;6.848;2023-01-23T10:29:58;102972.13;;;4.56;79.05
53506;BME280;39388;50.936;6.848;2023-01-23T10:33:00;102979.97;;;4.59;79.63
53506;BME280;39388;50.936;6.848;2023-01-23T10:35:35;102986.19;;;4.64;78.89
53506;BME280;39388;50.936;6.848;2023-01-23T10:41:15;102983.66;;;4.64;78.53
53506;BME280;39388;50.936;6.848;2023-01-23T10:43:55;102978.72;;;4.67;78.56
53506;BME280;39388;50.936;6.848;2023-01-23T10:46:31;102973.59;;;4.67;78.31
53506;BME280;39388;50.936;6.848;2023-01-23T10:49:02;102984.88;;;4.71;78.60
53506;BME280;39388;50.936;6.848;2023-01-23T10:59:39;102978.41;;;4.93;78.04
53506;BME280;39388;50.936;6.848;2023-01-23T11:04:46;102971.59;;;4.93;77.87
53506;BME280;39388;50.936;6.848;2023-01-23T11:07:22;102976.09;;;4.97;78.21
53506;BME280;39388;50.936;6.848;2023-01-23T11:09:56;102965.00;;;4.97;78.63
53506;BME280;39388;50.936;6.848;2023-01-23T11:12:29;102973.34;;;5.09;77.83
53506;BME280;39388;50.936;6.848;2023-01-23T11:17:42;102945.28;;;5.11;76.98
53506;BME280;39388;50.936;6.848;2023-01-23T11:20:39;102959.69;;;5.25;77.25
53506;BME280;39388;50.936;6.848;2023-01-23T11:23:15;102954.91;;;5.31;77.33
53506;BME280;39388;50.936;6.848;2023-01-23T11:25:50;102952.59;;;5.36;76.75
53506;BME280;39388;50.936;6.848;2023-01-23T11:28:48;102951.06;;;5.40;76.10
53506;BME280;39388;50.936;6.848;2023-01-23T11:31:20;102951.06;;;5.40;76.39
53506;BME280;39388;50.936;6.848;2023-01-23T11:34:11;102945.94;;;5.40;76.61
53506;BME280;39388;50.936;6.848;2023-01-23T11:37:03;102949.88;;;5.49;76.44
53506;BME280;39388;50.936;6.848;2023-01-23T11:42:23;102937.16;;;5.51;75.14
53506;BME280;39388;50.936;6.848;2023-01-23T11:44:58;102935.25;;;5.47;75.22
53506;BME280;39388;50.936;6.848;2023-01-23T11:53:18;102927.72;;;5.50;75.13
53506;BME280;39388;50.936;6.848;2023-01-23T12:01:10;102920.69;;;5.46;73.83
53506;BME280;39388;50.936;6.848;2023-01-23T12:06:53;102922.84;;;5.38;73.97
53506;BME280;39388;50.936;6.848;2023-01-23T12:15:45;102919.00;;;5.46;72.64
53506;BME280;39388;50.936;6.848;2023-01-23T12:21:18;102916.44;;;5.46;72.71
53506;BME280;39388;50.936;6.848;2023-01-23T12:24:06;102921.72;;;5.49;72.51
53506;BME280;39388;50.936;6.848;2023-01-23T12:26:59;102926.91;;;5.51;72.62
53506;BME280;39388;50.936;6.848;2023-01-23T12:32:43;102925.88;;;5.47;72.63
53506;BME280;39388;50.936;6.848;2023-01-23T12:41:19;102930.13;;;5.47;72.84
53506;BME280;39388;50.936;6.848;2023-01-23T12:44:12;102933.63;;;5.49;72.27
53506;BME280;39388;50.936;6.848;2023-01-23T12:46:54;102929.56;;;5.52;72.75
53506;BME280;39388;50.936;6.848;2023-01-23T12:49:32;102921.88;;;5.52;72.35
53506;BME280;39388;50.936;6.848;2023-01-23T12:52:21;102928.59;;;5.50;72.40
53506;BME280;39388;50.936;6.848;2023-01-23T12:55:01;102922.44;;;5.47;72.04
53506;BME280;39388;50.936;6.848;2023-01-23T12:57:33;102922.03;;;5.56;72.01
53506;BME280;39388;50.936;6.848;2023-01-23T13:00:33;102923.09;;;5.59;71.51
53506;BME280;39388;50.936;6.848;2023-01-23T13:08:48;102928.34;;;5.62;71.52
53506;BME280;39388;50.936;6.848;2023-01-23T13:11:36;102930.88;;;5.62;70.72
53506;BME280;39388;50.936;6.848;2023-01-23T13:17:00;102935.31;;;5.65;72.16
53506;BME280;39388;50.936;6.848;2023-01-23T13:19:38;102934.56;;;5.67;71.35
53506;BME280;39388;50.936;6.848;2023-01-23T13:22:30;102944.03;;;5.68;70.68
53506;BME280;39388;50.936;6.848;2023-01-23T13:25:14;102946.41;;;5.65;71.46
53506;BME280;39388;50.936;6.848;2023-01-23T13:27:49;102940.44;;;5.65;71.86
53506;BME280;39388;50.936;6.848;2023-01-23T13:32:54;102943.56;;;5.59;71.50
53506;BME280;39388;50.936;6.848;2023-01-23T13:52:23;102950.66;;;5.65;70.25
53506;BME280;39388;50.936;6.848;2023-01-23T13:55:28;102938.66;;;5.64;69.28
53506;BME280;39388;50.936;6.848;2023-01-23T13:58:21;102947.16;;;5.63;69.06
53506;BME280;39388;50.936;6.848;2023-01-23T14:01:16;102949.53;;;5.60;69.63
53506;BME280;39388;50.936;6.848;2023-01-23T14:04:18;102949.38;;;5.57;69.61
53506;BME280;39388;50.936;6.848;2023-01-23T14:07:32;102950.28;;;5.57;69.44
53506;BME280;39388;50.936;6.848;2023-01-23T14:12:48;102941.69;;;5.57;68.93
53506;BME280;39388;50.936;6.848;2023-01-23T14:15:24;102946.03;;;5.58;69.26
53506;BME280;39388;50.936;6.848;2023-01-23T14:21:01;102955.63;;;5.62;69.17
53506;BME280;39388;50.936;6.848;2023-01-23T14:26:08;102948.97;;;5.65;68.72
53506;BME280;39388;50.936;6.848;2023-01-23T14:28:53;102942.81;;;5.62;68.81
53506;BME280;39388;50.936;6.848;2023-01-23T14:31:31;102949.72;;;5.63;68.75
53506;BME280;39388;50.936;6.848;2023-01-23T14:34:14;102953.78;;;5.59;68.31
53506;BME280;39388;50.936;6.848;2023-01-23T14:36:49;102958.00;;;5.59;68.74
53506;BME280;39388;50.936;6.848;2023-01-23T14:39:22;102951.00;;;5.55;68.64
53506;BME280;39388;50.936;6.848;2023-01-23T14:41:56;102947.72;;;5.57;68.91
53506;BME280;39388;50.936;6.848;2023-01-23T14:44:42;102962.50;;;5.63;68.84
53506;BME280;39388;50.936;6.848;2023-01-23T14:47:24;102963.38;;;5.63;68.68
53506;BME280;39388;50.936;6.848;2023-01-23T14:49:56;102959.16;;;5.64;67.58
53506;BME280;39388;50.936;6.848;2023-01-23T14:52:28;102946.75;;;5.55;68.31
53506;BME280;39388;50.936;6.848;2023-01-23T14:54:59;102970.34;;;5.66;68.75
53506;BME280;39388;50.936;6.848;2023-01-23T14:57:30;102933.56;;;5.47;68.55
53506;BME280;39388;50.936;6.848;2023-01-23T15:00:00;102959.88;;;5.61;69.11
53506;BME280;39388;50.936;6.848;2023-01-23T15:02:33;102953.78;;;5.59;69.43
53506;BME280;39388;50.936;6.848;2023-01-23T15:13:18;102968.03;;;5.54;69.85
53506;BME280;39388;50.936;6.848;2023-01-23T15:15:56;102975.63;;;5.52;69.62
53506;BME280;39388;50.936;6.848;2023-01-23T15:18:29;102974.72;;;5.52;70.46
53506;BME280;39388;50.936;6.848;2023-01-23T15:21:02;102979.69;;;5.49;70.32
53506;BME280;39388;50.936;6.848;2023-01-23T15:23:34;102973.53;;;5.45;70.08
53506;BME280;39388;50.936;6.848;2023-01-23T15:28:55;102975.69;;;5.37;70.61
53506;BME280;39388;50.936;6.848;2023-01-23T15:31:29;102973.78;;;5.33;71.01
53506;BME280;39388;50.936;6.848;2023-01-23T15:41:59;102968.25;;;5.26;71.79
53506;BME280;39388;50.936;6.848;2023-01-23T15:44:31;102962.78;;;5.19;71.45
53506;BME280;39388;50.936;6.848;2023-01-23T15:47:02;102974.84;;;5.22;71.74
53506;BME280;39388;50.936;6.848;2023-01-23T15:49:36;102969.91;;;5.25;72.15